Time;durP1;ratioP1;P1;durP2;ratioP2;P2;SDS_P1;SDS_P2;PMS_P1;PMS_P2;Temp;Humidity;BMP_temperature;BMP_pressure;BME280_temperature;BME280_humidity;BME280_pressure;Samples;Min_cycle;Max_cycle;Signal;HPM_P1;HPM_P2
2022/03/15 00:00:38;;;;;;;14.93;5.93;;;;;;;6.34;62.34;100310.97;5221226;28;20530;-68
2022/03/15 00:03:29;;;;;;;20.33;7.35;;;;;;;6.45;61.35;100313.00;5223176;28;20839;-68
2022/03/15 00:06:19;;;;;;;28.48;9.85;;;;;;;6.42;61.81;100316.63;5222828;28;20056;-68
2022/03/15 00:09:09;;;;;;;19.80;6.38;;;;;;;6.31;61.62;100309.34;5223642;28;20542;-68
2022/03/15 00:12:00;;;;;;;18.25;8.10;;;;;;;6.74;61.46;100287.63;5222938;28;20153;-68
2022/03/15 00:14:50;;;;;;;20.65;8.88;;;;;;;6.85;61.04;100314.22;5222596;28;20071;-68
2022/03/15 00:17:42;;;;;;;18.23;7.57;;;;;;;6.62;61.23;100314.69;5217790;28;20048;-68
2022/03/15 00:20:32;;;;;;;20.48;7.90;;;;;;;6.44;62.15;100325.31;5215863;28;20079;-68
2022/03/15 00:23:22;;;;;;;18.95;8.05;;;;;;;6.45;61.58;100324.38;5217412;28;20052;-68
2022/03/15 00:26:13;;;;;;;18.10;8.60;;;;;;;6.52;61.56;100315.22;5220757;28;20049;-68
2022/03/15 00:29:03;;;;;;;13.82;7.35;;;;;;;6.99;60.50;100298.47;5217083;28;20051;-68
2022/03/15 00:31:53;;;;;;;15.75;7.80;;;;;;;6.59;61.09;100299.91;5222951;28;20049;-68
2022/03/15 00:34:44;;;;;;;19.10;7.97;;;;;;;6.43;61.35;100305.19;5222508;28;20491;-68
2022/03/15 00:37:36;;;;;;;22.23;8.52;;;;;;;6.37;62.50;100308.16;5222759;28;20415;-68
2022/03/15 00:40:27;;;;;;;30.17;8.13;;;;;;;6.31;62.20;100295.31;5222975;28;20127;-68
2022/03/15 00:43:17;;;;;;;22.70;8.55;;;;;;;6.40;62.86;100304.50;5223318;28;20084;-68
2022/03/15 00:46:07;;;;;;;22.25;9.82;;;;;;;6.45;62.10;100302.44;5222205;28;20554;-69
2022/03/15 00:48:57;;;;;;;22.85;8.10;;;;;;;6.47;61.83;100290.91;5219172;28;20103;-68
2022/03/15 00:51:49;;;;;;;23.98;8.40;;;;;;;7.06;61.09;100293.69;5222522;28;20068;-68
2022/03/15 00:54:39;;;;;;;17.50;8.90;;;;;;;6.54;61.94;100289.63;5220974;28;20222;-68
2022/03/15 00:57:29;;;;;;;20.95;9.32;;;;;;;6.44;62.09;100284.94;5222070;28;20068;-68
2022/03/15 01:00:22;;;;;;;16.90;7.95;;;;;;;6.35;62.50;100286.31;5222574;28;20063;-68
2022/03/15 01:03:12;;;;;;;19.45;8.38;;;;;;;6.34;62.91;100277.56;5222365;28;20126;-68
2022/03/15 01:06:02;;;;;;;20.45;8.35;;;;;;;6.46;62.44;100280.47;5220596;28;20064;-68
2022/03/15 01:08:53;;;;;;;17.20;8.13;;;;;;;6.48;61.32;100276.78;5222599;28;20570;-68
2022/03/15 01:11:44;;;;;;;20.30;8.10;;;;;;;6.53;61.29;100253.66;5222174;28;20057;-68
2022/03/15 01:14:35;;;;;;;23.85;8.57;;;;;;;6.86;60.68;100260.56;5221640;28;20049;-68
2022/03/15 01:17:25;;;;;;;17.40;8.73;;;;;;;6.67;61.14;100247.59;5207268;28;20124;-68
2022/03/15 01:20:16;;;;;;;17.90;8.32;;;;;;;6.36;61.93;100251.16;5218895;28;20064;-68
2022/03/15 01:23:06;;;;;;;19.20;8.52;;;;;;;6.32;62.17;100263.66;5222689;28;20068;-68
2022/03/15 01:25:56;;;;;;;21.58;8.88;;;;;;;6.29;62.51;100261.19;5220500;28;20106;-68
2022/03/15 01:28:46;;;;;;;21.73;8.63;;;;;;;6.31;63.34;100268.97;5221382;28;20056;-68
2022/03/15 01:31:36;;;;;;;19.75;8.32;;;;;;;6.50;61.79;100264.38;5231633;28;20126;-68
2022/03/15 01:34:28;;;;;;;20.58;8.88;;;;;;;6.49;62.15;100257.41;5220982;28;20106;-68
2022/03/15 01:37:19;;;;;;;25.17;8.27;;;;;;;6.41;62.10;100248.25;5220864;28;20052;-68
2022/03/15 01:40:10;;;;;;;15.43;8.23;;;;;;;6.26;62.96;100249.97;5225975;28;20134;-68
2022/03/15 01:43:01;;;;;;;20.25;8.73;;;;;;;6.28;63.57;100243.66;5220301;28;20053;-68
2022/03/15 01:45:53;;;;;;;24.83;8.32;;;;;;;6.38;63.88;100248.41;5224292;28;20048;-68
2022/03/15 01:48:45;;;;;;;18.42;8.30;;;;;;;6.35;63.56;100239.72;5215359;28;20057;-68
2022/03/15 01:51:40;;;;;;;24.05;8.63;;;;;;;7.43;59.47;100229.03;5225466;28;20106;-68
2022/03/15 01:54:30;;;;;;;26.65;9.15;;;;;;;6.84;61.49;100222.91;5220185;28;20052;-68
2022/03/15 01:57:20;;;;;;;16.73;8.43;;;;;;;6.23;62.79;100200.94;5224221;28;20052;-68
2022/03/15 02:00:13;;;;;;;17.48;7.70;;;;;;;6.28;63.12;100225.22;5224761;28;20485;-68
2022/03/15 02:03:13;;;;;;;14.05;7.90;;;;;;;6.25;62.45;100216.63;5225703;28;20487;-68
2022/03/15 02:06:05;;;;;;;18.50;7.88;;;;;;;6.34;62.54;100229.28;5225152;28;20576;-68
2022/03/15 02:08:55;;;;;;;20.67;8.63;;;;;;;6.50;62.86;100221.38;5225608;28;20102;-68
2022/03/15 02:11:46;;;;;;;21.48;8.55;;;;;;;6.64;61.91;100215.31;5225607;28;20059;-68
2022/03/15 02:14:36;;;;;;;22.38;8.65;;;;;;;6.47;62.55;100226.81;5225356;28;20056;-68
2022/03/15 02:17:27;;;;;;;20.52;8.63;;;;;;;6.25;62.50;100217.47;5220115;28;20566;-67
2022/03/15 02:20:17;;;;;;;19.20;7.95;;;;;;;6.34;63.01;100240.69;5224904;28;20057;-68
2022/03/15 02:23:08;;;;;;;22.10;8.48;;;;;;;6.22;63.30;100237.88;5220070;28;20068;-68
2022/03/15 02:25:58;;;;;;;21.35;8.70;;;;;;;6.28;64.12;100245.44;5224637;28;20063;-68
2022/03/15 02:28:48;;;;;;;16.15;7.60;;;;;;;6.31;62.92;100240.84;5219086;28;20052;-68
2022/03/15 02:31:38;;;;;;;18.45;8.10;;;;;;;6.35;62.95;100218.66;5225185;28;20136;-68
2022/03/15 02:34:29;;;;;;;18.95;7.95;;;;;;;6.40;62.93;100210.50;5224716;28;20108;-68
2022/03/15 02:37:19;;;;;;;21.17;7.93;;;;;;;6.49;62.54;100207.34;5220449;28;20083;-68
2022/03/15 02:40:09;;;;;;;18.88;7.63;;;;;;;6.28;63.06;100211.19;5225090;28;20060;-68
2022/03/15 02:43:00;;;;;;;17.10;8.00;;;;;;;6.26;63.46;100219.19;5225023;28;20060;-68
2022/03/15 02:45:50;;;;;;;25.35;8.00;;;;;;;6.32;62.30;100217.97;5224502;28;20059;-68
2022/03/15 02:48:41;;;;;;;30.23;9.75;;;;;;;6.31;63.16;100216.28;5224467;28;20041;-68
2022/03/15 02:51:31;;;;;;;38.10;15.13;;;;;;;6.32;62.42;100210.97;5223083;28;20052;-68
2022/03/15 02:54:22;;;;;;;35.47;14.07;;;;;;;6.21;63.05;100168.56;5224535;28;20071;-68
2022/03/15 02:57:12;;;;;;;23.17;8.77;;;;;;;6.36;63.25;100193.19;5224449;28;20049;-68
2022/03/15 03:00:04;;;;;;;17.50;7.82;;;;;;;6.53;63.46;100190.44;5224919;28;20052;-68
2022/03/15 03:02:54;;;;;;;15.48;8.00;;;;;;;6.46;62.87;100190.88;5221844;28;20049;-68
2022/03/15 03:05:45;;;;;;;20.25;7.68;;;;;;;6.06;64.86;100198.38;5224031;28;20526;-68
2022/03/15 03:08:35;;;;;;;19.00;9.70;;;;;;;6.20;63.75;100187.09;5224684;28;20194;-68
2022/03/15 03:11:27;;;;;;;29.88;11.45;;;;;;;6.27;63.06;100205.09;5224062;28;20064;-68
2022/03/15 03:14:21;;;;;;;22.00;8.88;;;;;;;6.39;63.27;100200.91;5224428;28;20146;-68
2022/03/15 03:17:12;;;;;;;21.30;8.93;;;;;;;6.40;62.97;100205.25;5223738;28;20056;-68
2022/03/15 03:20:05;;;;;;;30.58;11.20;;;;;;;6.33;63.45;100202.09;5222932;28;20063;-68
2022/03/15 03:22:58;;;;;;;21.08;10.18;;;;;;;6.27;63.79;100178.75;5224507;28;20503;-68
2022/03/15 03:25:48;;;;;;;26.58;9.10;;;;;;;6.17;64.22;100200.44;5223730;28;20052;-68
2022/03/15 03:28:39;;;;;;;16.50;8.30;;;;;;;6.18;63.74;100184.53;5223107;28;20060;-68
2022/03/15 03:31:30;;;;;;;16.42;8.45;;;;;;;6.36;63.58;100182.66;5224351;28;20139;-68
2022/03/15 03:34:20;;;;;;;17.60;8.98;;;;;;;6.49;63.47;100188.91;5223770;28;20142;-66
2022/03/15 03:37:10;;;;;;;22.77;9.45;;;;;;;6.46;63.39;100177.72;5219254;28;20142;-66
2022/03/15 03:40:07;;;;;;;17.80;8.48;;;;;;;6.61;63.11;100178.59;5224287;28;20060;-66
2022/03/15 03:42:57;;;;;;;16.17;8.02;;;;;;;6.53;62.95;100164.06;5219337;28;20056;-66
2022/03/15 03:45:47;;;;;;;17.33;7.50;;;;;;;6.39;63.26;100171.94;5222883;28;20056;-66
2022/03/15 03:48:37;;;;;;;15.57;7.43;;;;;;;6.28;63.32;100174.31;5223908;28;20132;-66
2022/03/15 03:51:27;;;;;;;13.63;8.30;;;;;;;6.26;63.63;100158.63;5223695;28;20049;-66
2022/03/15 03:54:17;;;;;;;19.10;8.30;;;;;;;6.40;64.01;100156.97;5222395;28;20427;-66
2022/03/15 03:57:07;;;;;;;18.40;8.45;;;;;;;6.64;62.94;100138.88;5223560;28;20426;-67
2022/03/15 03:59:57;;;;;;;16.45;8.10;;;;;;;6.66;63.29;100158.09;5223769;28;20138;-67
2022/03/15 04:02:48;;;;;;;17.38;8.27;;;;;;;6.51;63.63;100152.75;5223698;28;20634;-67
2022/03/15 04:05:39;;;;;;;19.02;8.00;;;;;;;6.56;63.03;100147.25;5223339;28;20127;-67
2022/03/15 04:08:31;;;;;;;13.10;8.25;;;;;;;6.43;63.22;100151.53;5222914;28;20067;-66
2022/03/15 04:11:21;;;;;;;15.98;8.05;;;;;;;6.58;63.89;100142.72;5223391;28;20167;-67
2022/03/15 04:14:11;;;;;;;20.73;8.38;;;;;;;6.55;63.64;100141.09;5212530;28;20106;-66
2022/03/15 04:17:06;;;;;;;17.30;8.68;;;;;;;6.64;63.49;100146.78;5222980;28;20146;-66
2022/03/15 04:19:57;;;;;;;15.95;8.25;;;;;;;6.62;63.06;100159.19;5223160;28;20059;-67
2022/03/15 04:22:48;;;;;;;19.15;8.45;;;;;;;6.75;62.74;100149.63;5223216;28;20059;-66
2022/03/15 04:25:39;;;;;;;23.85;9.38;;;;;;;6.41;64.48;100158.66;5218341;28;20137;-66
2022/03/15 04:28:29;;;;;;;19.35;9.85;;;;;;;6.45;65.03;100158.38;5221515;28;20064;-67
2022/03/15 04:31:21;;;;;;;19.00;10.00;;;;;;;6.45;63.99;100150.47;5217797;28;20075;-67
2022/03/15 04:34:11;;;;;;;21.77;9.35;;;;;;;6.52;64.30;100143.06;5221614;28;20092;-66
2022/03/15 04:37:02;;;;;;;18.75;8.60;;;;;;;6.78;63.02;100152.91;5222577;28;20562;-67
2022/03/15 04:39:52;;;;;;;17.05;8.70;;;;;;;6.71;63.14;100151.59;5222959;28;20499;-67
2022/03/15 04:42:42;;;;;;;12.73;7.70;;;;;;;6.74;63.23;100143.50;5216842;28;20060;-67
2022/03/15 04:45:32;;;;;;;17.10;8.60;;;;;;;6.80;62.96;100143.16;5222456;28;20049;-67
2022/03/15 04:48:23;;;;;;;16.52;7.95;;;;;;;6.65;64.27;100130.03;5222600;28;20049;-67
2022/03/15 04:51:14;;;;;;;16.77;8.65;;;;;;;6.94;62.55;100117.75;5222632;28;20049;-67
2022/03/15 04:54:09;;;;;;;13.73;7.30;;;;;;;7.16;61.48;100120.75;5222954;28;20056;-67
2022/03/15 04:56:59;;;;;;;19.75;7.97;;;;;;;7.32;61.65;100144.41;5222281;28;20048;-67
2022/03/15 04:59:51;;;;;;;17.70;7.75;;;;;;;6.96;61.51;100137.81;5222663;28;20489;-67
2022/03/15 05:02:43;;;;;;;15.63;7.18;;;;;;;6.77;62.84;100130.16;5210955;28;20041;-67
2022/03/15 05:05:34;;;;;;;15.35;8.75;;;;;;;6.75;64.06;100128.53;5221744;28;20065;-67
2022/03/15 05:08:24;;;;;;;13.27;7.18;;;;;;;6.88;63.29;100126.00;5218307;28;20519;-67
2022/03/15 05:11:15;;;;;;;14.60;7.07;;;;;;;7.28;62.14;100130.56;5221409;28;20059;-67
2022/03/15 05:14:05;;;;;;;16.80;8.20;;;;;;;7.10;62.25;100134.31;5220219;28;20137;-67
2022/03/15 05:16:55;;;;;;;19.48;8.23;;;;;;;7.13;62.73;100131.50;5226759;28;20068;-67
2022/03/15 05:19:47;;;;;;;15.68;8.18;;;;;;;6.90;62.24;100127.63;5224997;28;20037;-67
2022/03/15 05:22:40;;;;;;;14.95;8.23;;;;;;;6.97;62.51;100128.09;5212347;28;20111;-67
2022/03/15 05:25:30;;;;;;;13.27;6.95;;;;;;;6.92;62.14;100131.03;5220784;28;20067;-67
2022/03/15 05:28:19;;;;;;;16.23;7.97;;;;;;;7.26;61.58;100121.03;5226002;28;20088;-67
2022/03/15 05:31:10;;;;;;;14.60;8.05;;;;;;;7.07;61.98;100131.88;5220149;28;20090;-67
2022/03/15 05:34:00;;;;;;;20.27;10.18;;;;;;;6.88;63.51;100129.50;5225654;28;20041;-67
2022/03/15 05:36:50;;;;;;;23.88;9.50;;;;;;;6.81;63.66;100126.38;5224709;28;20076;-66
2022/03/15 05:39:40;;;;;;;18.58;8.60;;;;;;;7.04;62.85;100126.78;5223265;28;20049;-69
2022/03/15 05:42:30;;;;;;;17.80;8.07;;;;;;;6.86;62.70;100131.41;5220677;28;20053;-67
2022/03/15 05:45:20;;;;;;;21.40;9.63;;;;;;;6.62;64.23;100127.56;5214101;28;20052;-66
2022/03/15 05:48:11;;;;;;;16.77;8.95;;;;;;;6.64;64.42;100126.53;5226172;28;20142;-65
2022/03/15 05:51:01;;;;;;;25.92;9.07;;;;;;;6.66;63.59;100131.75;5225949;28;20064;-66
2022/03/15 05:53:52;;;;;;;29.15;8.60;;;;;;;6.56;64.10;100132.28;5226652;28;20102;-65
2022/03/15 05:56:42;;;;;;;18.60;8.95;;;;;;;6.64;62.64;100131.81;5226015;28;20537;-67
2022/03/15 05:59:33;;;;;;;17.70;8.80;;;;;;;6.69;63.67;100131.53;5211306;28;20052;-66
2022/03/15 06:02:23;;;;;;;26.05;11.85;;;;;;;6.69;63.83;100131.53;5223771;28;20063;-67
2022/03/15 06:05:13;;;;;;;20.40;8.68;;;;;;;6.78;63.33;100129.19;5224703;28;20080;-66
2022/03/15 06:08:04;;;;;;;16.92;8.48;;;;;;;6.78;63.01;100123.09;5219883;28;20555;-66
2022/03/15 06:10:54;;;;;;;16.58;8.32;;;;;;;6.70;63.07;100113.00;5221210;28;20495;-66
2022/03/15 06:13:44;;;;;;;25.52;8.80;;;;;;;6.85;62.97;100123.56;5220584;28;20547;-67
2022/03/15 06:16:34;;;;;;;20.27;9.02;;;;;;;6.85;63.71;100124.41;5209368;28;20122;-67
2022/03/15 06:19:25;;;;;;;14.85;7.97;;;;;;;6.97;62.25;100115.75;5212651;28;20194;-66
2022/03/15 06:22:16;;;;;;;18.88;8.85;;;;;;;6.83;62.99;100126.31;5211825;28;20063;-67
2022/03/15 06:25:07;;;;;;;17.70;8.63;;;;;;;6.82;63.61;100120.19;5209129;28;20570;-67
2022/03/15 06:28:01;;;;;;;17.25;8.68;;;;;;;6.78;63.94;100125.72;5207057;28;20064;-67
2022/03/15 06:30:51;;;;;;;21.45;8.80;;;;;;;6.95;64.10;100128.19;5200847;28;20126;-67
2022/03/15 06:33:45;;;;;;;18.13;8.98;;;;;;;7.05;62.67;100124.06;5203668;28;21923;-69
2022/03/15 06:36:35;;;;;;;20.27;8.63;;;;;;;7.11;62.95;100121.97;5199594;28;20059;-66
2022/03/15 06:39:25;;;;;;;19.40;9.07;;;;;;;7.11;63.91;100124.63;5212525;28;20704;-66
2022/03/15 06:42:17;;;;;;;20.80;9.50;;;;;;;7.41;62.69;100127.13;5216792;28;20124;-66
2022/03/15 06:45:09;;;;;;;26.38;9.48;;;;;;;7.25;63.90;100133.38;5225320;28;20419;-68
2022/03/15 06:47:59;;;;;;;20.48;9.05;;;;;;;7.25;64.08;100129.88;5221368;28;20056;-66
2022/03/15 06:50:49;;;;;;;20.70;9.70;;;;;;;7.23;64.07;100131.78;5225319;28;20045;-66
2022/03/15 06:53:40;;;;;;;23.20;9.20;;;;;;;7.60;62.43;100126.84;5225323;28;20094;-67
2022/03/15 06:56:32;;;;;;;15.82;8.10;;;;;;;7.63;63.44;100124.84;5224890;28;20490;-67
2022/03/15 06:59:22;;;;;;;30.10;9.18;;;;;;;7.56;63.20;100134.09;5224159;28;20095;-67
2022/03/15 07:02:13;;;;;;;18.25;9.15;;;;;;;7.44;63.21;100104.03;5224943;28;20052;-67
2022/03/15 07:05:04;;;;;;;21.85;9.32;;;;;;;7.80;62.70;100126.41;5224150;28;20053;-67
2022/03/15 07:07:54;;;;;;;18.58;8.93;;;;;;;7.92;62.03;100114.22;5222395;28;20511;-66
2022/03/15 07:10:44;;;;;;;25.65;11.10;;;;;;;8.00;61.86;100115.41;5221275;28;20528;-67
2022/03/15 07:13:34;;;;;;;21.58;9.38;;;;;;;7.93;62.99;100122.03;5204324;28;20057;-66
2022/03/15 07:16:24;;;;;;;17.38;8.30;;;;;;;7.98;61.86;100103.28;5211963;28;20059;-67
2022/03/15 07:19:14;;;;;;;17.08;9.35;;;;;;;8.09;62.16;100110.47;5223949;28;20450;-67
2022/03/15 07:22:07;;;;;;;25.27;9.02;;;;;;;8.16;62.72;100106.47;5224241;28;20183;-68
2022/03/15 07:24:57;;;;;;;17.70;6.22;;;;;;;8.45;60.97;100107.22;5224043;28;20534;-67
2022/03/15 07:27:48;;;;;;;17.90;7.25;;;;;;;8.50;61.50;100098.97;5223315;28;20101;-67
2022/03/15 07:30:38;;;;;;;16.48;8.15;;;;;;;8.56;60.41;100102.06;5223927;28;20043;-67
2022/03/15 07:33:28;;;;;;;14.98;6.95;;;;;;;8.62;60.94;100101.66;5224390;28;20049;-66
2022/03/15 07:36:19;;;;;;;20.00;7.40;;;;;;;8.72;59.72;100106.31;5221580;28;20492;-67
2022/03/15 07:39:09;;;;;;;16.58;8.00;;;;;;;8.70;60.52;100087.88;5224953;28;20435;-68
2022/03/15 07:41:59;;;;;;;25.80;8.55;;;;;;;8.58;60.67;100101.97;5221864;28;20064;-67
2022/03/15 07:44:54;;;;;;;19.20;7.97;;;;;;;8.73;58.72;100106.19;5223511;28;20123;-67
2022/03/15 07:47:47;;;;;;;17.40;7.75;;;;;;;8.69;60.06;100079.13;5224282;28;20087;-67
2022/03/15 07:50:37;;;;;;;17.55;7.55;;;;;;;9.06;57.98;100089.78;5222839;28;20049;-66
2022/03/15 07:53:28;;;;;;;20.77;7.30;;;;;;;8.86;58.74;100100.91;5223616;28;20056;-68
2022/03/15 07:56:18;;;;;;;17.98;6.85;;;;;;;9.05;58.38;100084.63;5222980;28;20056;-66
2022/03/15 07:59:09;;;;;;;14.60;6.90;;;;;;;9.16;58.33;100079.41;5217689;28;20053;-66
2022/03/15 08:01:59;;;;;;;17.55;7.40;;;;;;;9.55;57.20;100078.38;5223667;28;20049;-66
2022/03/15 08:04:49;;;;;;;16.55;7.90;;;;;;;9.31;57.22;100086.28;5223275;28;20055;-68
2022/03/15 08:07:39;;;;;;;13.80;6.90;;;;;;;9.61;56.76;100085.88;5223119;28;20056;-67
2022/03/15 08:10:30;;;;;;;26.85;7.70;;;;;;;9.60;56.74;100081.53;5223489;28;20442;-68
2022/03/15 08:13:21;;;;;;;20.67;7.13;;;;;;;9.58;56.75;100088.75;5206755;28;20060;-68
2022/03/15 08:16:11;;;;;;;13.90;6.97;;;;;;;9.61;57.10;100082.38;5222801;28;20423;-68
2022/03/15 08:19:01;;;;;;;25.02;7.45;;;;;;;9.88;56.50;100083.00;5223620;28;20427;-67
2022/03/15 08:21:52;;;;;;;18.67;7.53;;;;;;;9.81;56.36;100073.00;5222112;28;20053;-68
2022/03/15 08:24:43;;;;;;;20.58;7.07;;;;;;;9.85;55.80;100038.19;5223207;28;20588;-68
2022/03/15 08:27:34;;;;;;;20.95;6.90;;;;;;;9.92;55.65;100051.00;5222902;28;20553;-68
2022/03/15 08:30:24;;;;;;;18.42;7.93;;;;;;;10.13;55.47;100073.22;5219783;28;20052;-68
2022/03/15 08:33:14;;;;;;;19.10;7.88;;;;;;;10.48;54.91;100062.66;5221555;28;20195;-67
2022/03/15 08:36:05;;;;;;;13.77;7.80;;;;;;;10.33;55.75;100063.81;5222860;28;20525;-67
2022/03/15 08:38:56;;;;;;;21.55;8.40;;;;;;;10.22;56.31;100067.25;5209376;28;20509;-67
2022/03/15 08:41:46;;;;;;;21.05;8.50;;;;;;;10.39;56.29;100062.50;5223119;28;20530;-68
2022/03/15 08:44:36;;;;;;;15.27;7.03;;;;;;;10.64;54.92;100072.94;5222746;28;20041;-66
2022/03/15 08:47:28;;;;;;;21.73;8.25;;;;;;;10.81;54.13;100069.00;5222164;28;20077;-68
2022/03/15 08:50:19;;;;;;;14.70;6.63;;;;;;;10.65;54.30;100061.38;5208525;28;20103;-68
2022/03/15 08:53:09;;;;;;;19.20;6.97;;;;;;;10.85;53.75;100059.81;5223153;28;20172;-67
2022/03/15 08:56:00;;;;;;;14.57;6.90;;;;;;;10.81;53.80;100058.38;5222377;28;20049;-67
2022/03/15 08:58:50;;;;;;;16.55;6.50;;;;;;;11.02;53.73;100051.38;5222840;28;20539;-67
2022/03/15 09:01:42;;;;;;;19.77;7.32;;;;;;;11.26;53.17;100059.22;5219394;28;20427;-67
2022/03/15 09:04:32;;;;;;;16.50;6.85;;;;;;;11.27;53.75;100068.88;5221574;28;20056;-67
2022/03/15 09:07:22;;;;;;;17.52;7.15;;;;;;;11.13;54.01;100069.13;5220703;28;20450;-67
2022/03/15 09:10:14;;;;;;;13.38;7.03;;;;;;;11.68;51.64;100062.03;5211424;28;20186;-67
2022/03/15 09:13:06;;;;;;;21.23;7.32;;;;;;;11.21;52.69;100061.38;5222509;28;20064;-67
2022/03/15 09:15:56;;;;;;;13.75;6.82;;;;;;;11.29;52.85;100055.47;5222501;28;20076;-67
2022/03/15 09:18:48;;;;;;;18.27;6.72;;;;;;;11.67;51.89;100055.03;5209493;28;20419;-67
2022/03/15 09:21:37;;;;;;;19.20;6.60;;;;;;;11.47;51.82;100050.50;5222730;28;20489;-67
2022/03/15 09:24:29;;;;;;;17.15;7.00;;;;;;;11.21;53.27;100047.28;5221676;28;20135;-69
2022/03/15 09:27:19;;;;;;;12.80;7.10;;;;;;;11.56;53.41;100038.31;5222506;28;20049;-67
2022/03/15 09:30:09;;;;;;;17.10;6.97;;;;;;;11.43;52.64;100033.13;5222338;28;20422;-69
2022/03/15 09:33:00;;;;;;;21.10;6.90;;;;;;;11.70;52.10;100028.22;5222511;28;20175;-67
2022/03/15 09:35:50;;;;;;;14.70;6.72;;;;;;;11.78;52.45;100027.59;5218327;28;20133;-67
2022/03/15 09:38:41;;;;;;;14.55;7.00;;;;;;;11.80;52.56;100023.00;5222776;28;20056;-68
2022/03/15 09:41:31;;;;;;;18.30;7.47;;;;;;;12.09;50.77;100014.47;5220081;28;20118;-67
2022/03/15 09:44:26;;;;;;;20.48;7.25;;;;;;;11.88;51.61;99993.16;5206955;28;20107;-68
2022/03/15 09:47:20;;;;;;;15.35;6.85;;;;;;;11.51;52.17;99994.34;5234564;28;20052;-66
2022/03/15 09:50:11;;;;;;;15.00;6.50;;;;;;;11.55;53.01;99988.78;5221488;28;20049;-68
2022/03/15 09:53:01;;;;;;;17.55;6.72;;;;;;;11.82;52.57;99991.84;5222389;28;20147;-67
2022/03/15 09:55:51;;;;;;;14.25;7.05;;;;;;;11.97;51.18;99993.22;5222213;28;20048;-67
2022/03/15 09:58:42;;;;;;;17.60;7.13;;;;;;;11.82;52.92;99980.34;5222515;28;20126;-66
2022/03/15 10:01:32;;;;;;;22.63;7.15;;;;;;;12.02;52.19;99970.72;5226227;28;20087;-67
2022/03/15 10:04:23;;;;;;;17.23;7.20;;;;;;;11.63;52.23;99941.19;5225546;28;20061;-68
2022/03/15 10:07:14;;;;;;;17.15;6.90;;;;;;;12.28;51.10;99965.88;5225989;28;20056;-66
2022/03/15 10:10:07;;;;;;;21.13;7.40;;;;;;;12.23;50.56;99964.47;5211978;28;20041;-67
2022/03/15 10:12:58;;;;;;;17.25;6.88;;;;;;;12.01;52.18;99956.59;5226428;28;20076;-66
2022/03/15 10:15:53;;;;;;;17.08;7.20;;;;;;;12.32;51.23;99951.38;5224003;28;20489;-67
2022/03/15 10:18:57;;;;;;;22.40;7.53;;;;;;;11.98;52.65;99944.41;5224166;28;20048;-66
2022/03/15 10:21:50;;;;;;;18.55;7.88;;;;;;;11.82;53.55;99937.81;5223460;28;20599;-67
2022/03/15 10:24:40;;;;;;;14.95;7.70;;;;;;;12.11;52.56;99925.59;5225054;28;20056;-66
2022/03/15 10:27:35;;;;;;;16.15;7.65;;;;;;;12.00;53.26;99920.38;5222935;28;20052;-67
2022/03/15 10:30:28;;;;;;;22.23;8.27;;;;;;;12.16;53.20;99920.75;5223176;28;20064;-66
2022/03/15 10:33:18;;;;;;;21.58;7.15;;;;;;;12.17;52.73;99914.47;5223871;28;20063;-67
2022/03/15 10:36:17;;;;;;;12.75;7.13;;;;;;;11.97;53.81;99899.38;5225029;28;20060;-66
2022/03/15 10:39:12;;;;;;;23.58;7.13;;;;;;;11.66;54.70;99911.72;5225436;28;20511;-67
2022/03/15 10:42:05;;;;;;;18.25;8.55;;;;;;;11.87;53.47;99896.66;5215465;28;20068;-67
2022/03/15 10:44:56;;;;;;;23.45;7.95;;;;;;;12.25;54.24;99897.00;5225491;28;20134;-70
2022/03/15 10:47:52;;;;;;;15.05;7.35;;;;;;;12.19;53.75;99883.28;5224667;28;20055;-66
2022/03/15 10:50:56;;;;;;;14.70;6.45;;;;;;;12.31;53.20;99869.88;5210434;28;20079;-66
2022/03/15 10:53:48;;;;;;;16.10;8.98;;;;;;;12.45;54.06;99881.00;5224868;28;20052;-65
2022/03/15 10:56:38;;;;;;;41.13;17.63;;;;;;;12.37;54.78;99878.16;5223818;28;20049;-66
2022/03/15 10:59:29;;;;;;;30.40;9.93;;;;;;;12.29;54.95;99887.81;5209696;28;20530;-67
2022/03/15 11:02:30;;;;;;;23.73;10.85;;;;;;;11.97;55.11;99894.91;5224798;28;20053;-67
2022/03/15 11:05:30;;;;;;;16.33;6.85;;;;;;;12.15;55.32;99881.88;5224187;28;20060;-66
2022/03/15 11:08:21;;;;;;;18.77;6.97;;;;;;;12.49;53.84;99865.63;5224164;28;20068;-67
2022/03/15 11:11:25;;;;;;;13.63;6.93;;;;;;;12.23;54.35;99873.22;5223580;28;20620;-66
2022/03/15 11:14:33;;;;;;;18.05;7.53;;;;;;;12.46;55.62;99849.94;5224867;28;20048;-67
2022/03/15 11:17:26;;;;;;;16.45;7.00;;;;;;;12.37;56.04;99851.56;5224640;28;20673;-67
2022/03/15 11:20:16;;;;;;;16.80;6.30;;;;;;;12.33;56.09;99841.34;5223231;28;20124;-66
2022/03/15 11:23:10;;;;;;;20.23;7.10;;;;;;;12.16;57.46;99827.72;5224789;28;20462;-66
2022/03/15 11:26:04;;;;;;;20.27;6.85;;;;;;;12.08;57.88;99827.50;5223382;28;20045;-66
2022/03/15 11:28:56;;;;;;;16.58;6.90;;;;;;;12.05;57.03;99811.81;5224735;28;20055;-67
2022/03/15 11:31:46;;;;;;;14.63;7.28;;;;;;;12.26;55.88;99813.63;5223951;28;20072;-67
2022/03/15 11:34:40;;;;;;;23.15;7.22;;;;;;;11.95;56.70;99806.50;5223932;28;20057;-66
2022/03/15 11:37:31;;;;;;;;;;;;;;;12.13;57.43;99796.06;5222153;28;20106;-66
2022/03/15 11:40:21;;;;;;;16.02;7.00;;;;;;;12.11;56.58;99797.16;5208987;28;19927;-67
2022/03/15 11:43:18;;;;;;;16.98;7.70;;;;;;;11.96;59.14;99796.69;5221662;28;20112;-66
2022/03/15 11:46:43;;;;;;;15.65;6.85;;;;;;;12.01;57.33;99778.53;5224181;28;20060;-66
2022/03/15 11:49:52;;;;;;;21.45;6.75;;;;;;;11.99;58.33;99778.66;5224257;28;20055;-66
2022/03/15 11:53:00;;;;;;;16.40;7.05;;;;;;;11.83;57.94;99775.63;5223775;28;20419;-66
2022/03/15 11:56:03;;;;;;;15.35;7.20;;;;;;;11.82;58.24;99773.09;5223605;28;20503;-66
2022/03/15 11:58:55;;;;;;;15.35;7.15;;;;;;;11.77;58.64;99773.50;5207823;28;20064;-66
2022/03/15 12:01:47;;;;;;;13.57;6.60;;;;;;;11.90;57.11;99771.50;5223635;28;20072;-66
2022/03/15 12:04:44;;;;;;;19.90;8.65;;;;;;;11.71;57.18;99747.44;5222794;28;20056;-66
2022/03/15 12:07:45;;;;;;;15.25;8.15;;;;;;;11.98;57.73;99757.53;5214898;28;20522;-68
2022/03/15 12:10:37;;;;;;;16.73;6.85;;;;;;;11.93;58.09;99743.81;5208950;28;20048;-66
2022/03/15 12:13:52;;;;;;;18.98;7.30;;;;;;;11.82;57.99;99725.25;5223268;28;20055;-66
2022/03/15 12:16:50;;;;;;;17.67;7.18;;;;;;;11.97;57.52;99716.00;5222063;28;20499;-67
2022/03/15 12:19:49;;;;;;;21.30;8.10;;;;;;;11.98;58.57;99721.16;5222936;28;20067;-68
2022/03/15 12:22:42;;;;;;;13.57;6.80;;;;;;;11.71;59.43;99703.13;5222604;28;20056;-66
2022/03/15 12:25:36;;;;;;;20.58;8.15;;;;;;;11.96;58.80;99717.81;5221540;28;20056;-67
2022/03/15 12:28:28;;;;;;;;;;;;;;;11.85;59.28;99707.25;5222906;28;20102;-67
2022/03/15 12:31:20;;;;;;;15.93;6.97;;;;;;;11.79;59.32;99704.28;5222605;28;19927;-65
2022/03/15 12:34:15;;;;;;;16.40;6.97;;;;;;;11.13;61.99;99696.69;5219567;28;20059;-66
2022/03/15 12:37:06;;;;;;;16.55;6.68;;;;;;;11.27;61.46;99678.59;5221479;28;20492;-68
2022/03/15 12:40:02;;;;;;;14.32;7.10;;;;;;;11.63;61.30;99692.34;5217900;28;20075;-67
2022/03/15 12:42:53;;;;;;;13.10;6.43;;;;;;;11.45;61.32;99654.94;5217158;28;20056;-67
2022/03/15 12:45:47;;;;;;;14.88;6.57;;;;;;;11.79;60.61;99683.00;5221830;28;20057;-65
2022/03/15 12:48:42;;;;;;;;;;;;;;;11.88;61.18;99679.59;5220966;28;20873;-66
2022/03/15 12:51:37;;;;;;;;;;;;;;;12.30;59.13;99682.06;5220143;28;20288;-66
2022/03/15 12:54:27;;;;;;;10.63;5.97;;;;;;;12.44;59.09;99689.63;5216657;28;19948;-67
2022/03/15 12:57:19;;;;;;;14.38;6.13;;;;;;;12.42;59.54;99678.31;5213751;28;20055;-67
2022/03/15 13:00:11;;;;;;;12.90;5.57;;;;;;;12.06;60.28;99662.03;5216164;28;20071;-67
2022/03/15 13:03:03;;;;;;;16.23;6.03;;;;;;;12.08;61.76;99667.19;5194594;28;21785;-66
2022/03/15 13:05:55;;;;;;;11.35;5.75;;;;;;;11.98;60.03;99652.06;5211065;28;20521;-66
2022/03/15 13:08:56;;;;;;;14.13;5.63;;;;;;;11.67;60.44;99640.63;5210715;28;20102;-66
2022/03/15 13:11:48;;;;;;;15.00;5.25;;;;;;;11.15;61.74;99637.19;5216689;28;20048;-68
2022/03/15 13:14:39;;;;;;;12.50;6.22;;;;;;;11.33;62.30;99624.16;5216734;28;20056;-67
2022/03/15 13:17:31;;;;;;;13.43;6.20;;;;;;;11.58;62.02;99598.94;5217021;28;20140;-66